Schuyler, Nebraska
Current Conditions -  °F | °C
As of 8:55 PM on Friday 19 Dec 2014 (Local Time) from KOLU Reporting Station
Overcast Overcast  
Wind Chill: 28°   Ceiling: 1100
Heat Index: 34°   Visibility: 7mi
Dew Point: 27°   Wind: 7mph
Humidity: 75%   Direction: 160°SSE
Pressure: 30.09"   Gusts: NA
Location:  41.45°N, 97.06°W
Report Text: KOLU 200255Z AUTO 16006KT 7SM OVC011 01/M03 A3009 RMK AO1 57010
Loading
Personal Weather Stations






























Interactive Weather Map New forecast layout! Learn more

10-Day Weather Forecast

Advertisements
Track Severe Weather on mobile